This is the latest recevied weather packets stored in our database for station/object W4KUS-10. If no packets are shown the sender has not sent any weather packets the latest 10 day(s).
| Time | Temp. | Humidity | Pressure | Rain* | Wind** | Luminosity | Snow |
|---|---|---|---|---|---|---|---|
| 1777148741 | 28.33° C | 58% | 1008.5 hPa | 0 mm | - | - | - |
| 1777148441 | 28.33° C | 58% | 1008.5 hPa | 0 mm | - | - | - |
| 1777148117 | 28.33° C | 58% | 1008.5 hPa | 0 mm | - | - | - |
| 1777147841 | 28.33° C | 57% | 1008.5 hPa | 0 mm | - | - | - |
| 1777147541 | 28.33° C | 56% | 1008.5 hPa | 0 mm | - | - | - |
| 1777147217 | 28.89° C | 56% | 1008.4 hPa | 0 mm | - | - | - |
| 1777146941 | 28.89° C | 53% | 1008.4 hPa | 0 mm | - | - | - |
| 1777146641 | 29.44° C | 52% | 1008.4 hPa | 0 mm | - | - | - |
| 1777146341 | 29.44° C | 52% | 1008.3 hPa | 0 mm | - | - | - |
| 1777146041 | 29.44° C | 52% | 1008.3 hPa | 0 mm | - | - | - |
| 1777145741 | 29.44° C | 52% | 1008.2 hPa | 0 mm | - | - | - |
| 1777145418 | 29.44° C | 54% | 1008.2 hPa | 0 mm | - | - | - |
| 1777145141 | 28.89° C | 55% | 1008.4 hPa | 0 mm | - | - | - |
| 1777144841 | 28.33° C | 58% | 1008.4 hPa | 0 mm | - | - | - |
| 1777144541 | 27.22° C | 60% | 1008.6 hPa | 0 mm | - | - | - |
| 1777144241 | 26.67° C | 61% | 1008.8 hPa | 0 mm | - | - | - |
| 1777143941 | 26.67° C | 64% | 1008.9 hPa | 0 mm | - | - | - |
| 1777143641 | 26.11° C | 64% | 1009 hPa | 0 mm | - | - | - |
| 1777143341 | 26.11° C | 65% | 1009.1 hPa | 0 mm | - | - | - |
| 1777143041 | 26.11° C | 65% | 1009.1 hPa | 0 mm | - | - | - |
| 1777142741 | 26.11° C | 65% | 1009.1 hPa | 0 mm | - | - | - |
| 1777142441 | 26.11° C | 65% | 1009.2 hPa | 0 mm | - | - | - |
| 1777142141 | 26.11° C | 65% | 1009.1 hPa | 0 mm | - | - | - |
| 1777141817 | 26.11° C | 64% | 1009 hPa | 0 mm | - | - | - |
| 1777141541 | 26.67° C | 63% | 1009 hPa | 0 mm | - | - | - |
* Rain latest hour (hover to see other rain measurements)
** Current wind speed in m/s (hover to see current wind gust speed)